Marine Blue — 3ECO4 — position and weather

sailwx.info

Track history (hours):
 
Tides and Currents Weather Stations Pressure Air Temp Water Temp Dewpoint Dewpoint Depression Visibility Wind Speed Wind Dir Waves Ship Positions

Marine Blue

Last reported at 2014-Oct-19 02:32 UTC. Time now 2014-Oct-22 22:30 UTC.
Position N 01°12' E 103°52'.

Length 125 m; draft 8.5 m.

Type: Cargo ship. MMSI: 371414000.

Date/timePositionNaut miles runAvg speedWind from/ knotsBaromVisibWave heightAir tempDewpointWater temp
2014-Oct-19 02:32N 01°12' E 103°52'1412.9
2014-Oct-19 01:26N 01°16' E 104°06'  
2014-Oct-09 17:30N 31°50' E 131°42'1111.1
2014-Oct-09 16:33N 31°59' E 131°46'1111.3
2014-Oct-09 15:33N 32°10' E 131°51'1111.4
2014-Oct-09 14:33N 32°21' E 131°55'1111.1
2014-Oct-09 13:33N 32°31' E 131°60'1110.5
2014-Oct-09 12:32N 32°41' E 132°04'8310.3
2014-Oct-09 04:33N 33°57' E 132°42'  
Track history (hours):
 
Tides and Currents Weather Stations Pressure Air Temp Water Temp Dewpoint Dewpoint Depression Visibility Wind Speed Wind Dir Waves Ship Positions

Marine Blue

Last reported at 2014-Oct-19 02:32 UTC. Time now 2014-Oct-22 22:30 UTC.
Position N 01°12' E 103°52'.

Length 125 m; draft 8.5 m.

Type: Cargo ship. MMSI: 371414000.

Date/timePositionNaut miles runAvg speedWind from/ knotsBaromVisibWave heightAir tempDewpointWater temp
2014-Oct-19 02:32N 01°12' E 103°52'1412.9
2014-Oct-19 01:26N 01°16' E 104°06'  
2014-Oct-09 17:30N 31°50' E 131°42'1111.1
2014-Oct-09 16:33N 31°59' E 131°46'1111.3
2014-Oct-09 15:33N 32°10' E 131°51'1111.4
2014-Oct-09 14:33N 32°21' E 131°55'1111.1
2014-Oct-09 13:33N 32°31' E 131°60'1110.5
2014-Oct-09 12:32N 32°41' E 132°04'8310.3
2014-Oct-09 04:33N 33°57' E 132°42'  

Dump ship's entire track history